Terminal Aerodrome Forecast
Issued by NWS Jackson, MS

Home | Current Version | Previous Version | Text Only | Print | Product List | Glossary On
Versions: 1 2 3 4 5 6 7 8 9 10 11 12
744
FTUS44 KJAN 080520
TAFHBG
TAF
KHBG 080520Z 0806/0906 24005KT P6SM SCT250
     FM081300 30009KT P6SM SCT250
     FM081900 30019G26KT P6SM BKN050
     FM090200 27008KT P6SM BKN050=

USA.gov is the U.S. government's official web portal to all federal, state and local government web resources and services.